Time;durP1;ratioP1;P1;durP2;ratioP2;P2;SDS_P1;SDS_P2;PMS_P1;PMS_P2;Temp;Humidity;BMP_temperature;BMP_pressure;BME280_temperature;BME280_humidity;BME280_pressure;Samples;Min_cycle;Max_cycle;Signal;HPM_P1;HPM_P2
2021/07/12 00:00:26;;;;;;;;;;;;;;;29.19;37.59;97326.44;5005254;28;1615;-53
2021/07/12 00:02:52;;;;;;;;;;;;;;;29.24;37.67;97333.97;5006936;28;1698;-53
2021/07/12 00:05:18;;;;;;;;;;;;;;;29.24;37.58;97326.00;5006687;28;1107;-53
2021/07/12 00:07:43;;;;;;;;;;;;;;;29.20;37.56;97317.47;5006912;28;1516;-53
2021/07/12 00:10:09;;;;;;;;;;;;;;;29.31;37.32;97313.75;5006590;28;1789;-53
2021/07/12 00:12:34;;;;;;;;;;;;;;;29.36;37.22;97301.72;5006521;28;1914;-53
2021/07/12 00:15:00;;;;;;;;;;;;;;;29.27;37.69;97305.28;5007244;28;1164;-53
2021/07/12 00:17:25;;;;;;;;;;;;;;;29.21;37.62;97297.91;5004900;28;1190;-53
2021/07/12 00:19:50;;;;;;;;;;;;;;;29.31;37.52;97297.81;5006272;28;1662;-53
2021/07/12 00:22:15;;;;;;;;;;;;;;;29.29;37.61;97294.50;5005012;28;1365;-54
2021/07/12 00:24:40;;;;;;;;;;;;;;;29.19;37.47;97294.56;5005927;28;1466;-53
2021/07/12 00:27:05;;;;;;;;;;;;;;;29.25;37.32;97283.34;5005599;28;1205;-54
2021/07/12 00:29:31;;;;;;;;;;;;;;;29.29;37.29;97294.50;5005330;28;1095;-53
2021/07/12 00:31:56;;;;;;;;;;;;;;;29.22;37.41;97296.09;5005184;28;1968;-53
2021/07/12 00:34:21;;;;;;;;;;;;;;;29.12;37.78;97291.69;5005371;28;1774;-54
2021/07/12 00:36:46;;;;;;;;;;;;;;;29.29;37.46;97294.50;5008613;28;1425;-53
2021/07/12 00:39:11;;;;;;;;;;;;;;;29.24;37.60;97297.63;5005318;28;1591;-53
2021/07/12 00:41:37;;;;;;;;;;;;;;;29.42;37.13;97290.50;5003674;28;1339;-53
2021/07/12 00:44:03;;;;;;;;;;;;;;;29.23;37.35;97288.00;5005546;28;1150;-54
2021/07/12 00:46:28;;;;;;;;;;;;;;;29.17;37.69;97292.06;5002739;28;1438;-53
2021/07/12 00:48:54;;;;;;;;;;;;;;;29.16;37.56;97285.09;5005605;28;1681;-53
2021/07/12 00:51:19;;;;;;;;;;;;;;;29.33;37.35;97279.94;5002484;28;1161;-53
2021/07/12 00:53:46;;;;;;;;;;;;;;;29.19;37.63;97275.97;5002427;28;1965;-52
2021/07/12 00:56:11;;;;;;;;;;;;;;;29.30;37.38;97277.56;5004930;28;1847;-54
2021/07/12 00:58:37;;;;;;;;;;;;;;;29.30;37.26;97278.41;5001715;28;1520;-53
2021/07/12 01:01:02;;;;;;;;;;;;;;;29.13;37.71;97280.06;4996870;28;1585;-53
2021/07/12 01:03:28;;;;;;;;;;;;;;;29.31;37.30;97273.91;4998666;28;1287;-54
2021/07/12 01:05:53;;;;;;;;;;;;;;;29.25;37.45;97277.22;5001327;28;1570;-53
2021/07/12 01:08:18;;;;;;;;;;;;;;;29.32;37.21;97267.66;5003165;28;1272;-53
2021/07/12 01:11:10;;;;;;;;;;;;;;;29.27;37.39;97265.44;5002553;28;1560;-53
2021/07/12 01:13:52;;;;;;;;;;;;;;;29.27;37.64;97270.75;4979127;28;1911;-53
2021/07/12 01:16:36;;;;;;;;;;;;;;;29.12;37.60;97273.09;5003599;28;1238;-53
2021/07/12 01:19:15;;;;;;;;;;;;;;;29.20;37.52;97273.16;5004100;28;1544;-53
2021/07/12 01:21:46;;;;;;;;;;;;;;;29.25;37.23;97278.03;4993281;28;1274;-53
2021/07/12 01:24:30;;;;;;;;;;;;;;;29.34;37.30;97274.47;5003635;28;1636;-53
2021/07/12 01:27:10;;;;;;;;;;;;;;;29.26;37.40;97273.56;5006182;28;1469;-53
2021/07/12 01:29:50;;;;;;;;;;;;;;;29.26;37.33;97273.56;5003296;28;1059;-54
2021/07/12 01:32:34;;;;;;;;;;;;;;;29.27;37.58;97275.22;5003682;28;1977;-53
2021/07/12 01:35:02;;;;;;;;;;;;;;;29.22;37.23;97269.53;5003509;28;1382;-54
2021/07/12 01:37:27;;;;;;;;;;;;;;;29.23;37.43;97263.22;5005226;28;1390;-53
2021/07/12 01:40:07;;;;;;;;;;;;;;;29.26;37.22;97257.63;5003803;28;1800;-53
2021/07/12 01:42:37;;;;;;;;;;;;;;;29.24;37.52;97265.75;5001940;28;1369;-53
2021/07/12 01:45:13;;;;;;;;;;;;;;;29.11;37.87;97257.31;4991797;28;1420;-53
2021/07/12 01:47:53;;;;;;;;;;;;;;;29.14;37.49;97252.53;5004938;28;1615;-53
2021/07/12 01:50:32;;;;;;;;;;;;;;;29.25;37.13;97240.84;4992258;28;1207;-54
2021/07/12 01:53:10;;;;;;;;;;;;;;;29.20;37.41;97233.34;5002534;28;1972;-50
2021/07/12 01:55:53;;;;;;;;;;;;;;;29.14;37.48;97228.63;5005860;28;1559;-53
2021/07/12 01:58:37;;;;;;;;;;;;;;;29.14;37.57;97225.97;5002757;28;1293;-53
2021/07/12 02:01:02;;;;;;;;;;;;;;;29.23;37.35;97221.59;5003302;28;1463;-53
2021/07/12 02:03:28;;;;;;;;;;;;;;;29.25;37.53;97222.25;5003925;28;1662;-53
2021/07/12 02:05:55;;;;;;;;;;;;;;;29.16;37.55;97220.53;5003289;28;1595;-54
2021/07/12 02:08:21;;;;;;;;;;;;;;;29.24;37.35;97214.47;5003904;28;1367;-53
2021/07/12 02:10:46;;;;;;;;;;;;;;;29.19;37.54;97215.72;4989799;28;1704;-53
2021/07/12 02:13:12;;;;;;;;;;;;;;;29.30;37.13;97209.34;4990986;28;1981;-53
2021/07/12 02:15:37;;;;;;;;;;;;;;;29.26;37.21;97217.78;5002518;28;1510;-54
2021/07/12 02:18:03;;;;;;;;;;;;;;;29.12;37.71;97213.84;4993310;28;1589;-54
2021/07/12 02:20:28;;;;;;;;;;;;;;;29.26;37.24;97204.50;5001481;28;1299;-54
2021/07/12 02:22:53;;;;;;;;;;;;;;;29.22;37.32;97208.44;4992940;28;1296;-53
2021/07/12 02:25:18;;;;;;;;;;;;;;;29.32;37.11;97203.91;5001324;28;1579;-53
2021/07/12 02:27:44;;;;;;;;;;;;;;;29.22;37.26;97203.13;4994834;28;1190;-53
2021/07/12 02:30:09;;;;;;;;;;;;;;;29.14;37.68;97207.38;5001306;28;1169;-54
2021/07/12 02:32:35;;;;;;;;;;;;;;;29.20;37.34;97198.81;5002835;28;1966;-53
2021/07/12 02:35:00;;;;;;;;;;;;;;;29.26;37.21;97193.88;4990187;28;1628;-54
2021/07/12 02:37:25;;;;;;;;;;;;;;;29.19;37.14;97186.53;5003440;28;1442;-54
2021/07/12 02:39:50;;;;;;;;;;;;;;;29.23;37.09;97187.06;4989024;28;1704;-54
2021/07/12 02:42:15;;;;;;;;;;;;;;;29.32;36.94;97183.47;4991100;28;1476;-53
2021/07/12 02:44:43;;;;;;;;;;;;;;;29.22;37.23;97184.53;4991281;28;1189;-54
2021/07/12 02:47:08;;;;;;;;;;;;;;;29.14;37.51;97188.78;4990770;28;1558;-52
2021/07/12 02:49:34;;;;;;;;;;;;;;;29.18;37.27;97187.50;5005191;28;1105;-53
2021/07/12 02:52:00;;;;;;;;;;;;;;;29.33;37.05;97181.66;4992084;28;1903;-53
2021/07/12 02:54:28;;;;;;;;;;;;;;;29.23;37.08;97178.22;4991175;28;1605;-53
2021/07/12 02:56:54;;;;;;;;;;;;;;;29.25;37.20;97181.59;4990030;28;1534;-53
2021/07/12 02:59:19;;;;;;;;;;;;;;;29.20;37.02;97180.22;5003402;28;1121;-53
2021/07/12 03:01:44;;;;;;;;;;;;;;;29.07;37.30;97174.47;4997133;28;1558;-53
2021/07/12 03:04:09;;;;;;;;;;;;;;;29.15;37.50;97176.34;5061948;23;1558;-81
2021/07/12 03:06:35;;;;;;;;;;;;;;;29.16;37.33;97181.53;5052493;28;1543;-81
2021/07/12 03:09:00;;;;;;;;;;;;;;;29.25;37.01;97171.81;5027071;28;1669;-81
2021/07/12 03:11:25;;;;;;;;;;;;;;;29.20;37.23;97179.38;5037068;28;1663;-81
2021/07/12 03:13:51;;;;;;;;;;;;;;;29.25;36.93;97185.09;5040242;28;1957;-81
2021/07/12 03:16:16;;;;;;;;;;;;;;;29.35;36.82;97183.16;5026488;28;1485;-81
2021/07/12 03:18:44;;;;;;;;;;;;;;;29.31;36.86;97175.66;5024371;28;1713;-81
2021/07/12 03:21:09;;;;;;;;;;;;;;;29.32;36.73;97180.00;5037108;28;1428;-81
2021/07/12 03:23:42;;;;;;;;;;;;;;;29.24;37.04;97179.94;5028459;28;1209;-81
2021/07/12 03:26:07;;;;;;;;;;;;;;;29.31;36.96;97173.84;5038473;28;955;-81
2021/07/12 03:28:32;;;;;;;;;;;;;;;29.33;36.65;97177.19;5028696;28;1342;-81
2021/07/12 03:30:57;;;;;;;;;;;;;;;29.20;37.24;97174.06;5053590;28;1091;-81
2021/07/12 03:33:23;;;;;;;;;;;;;;;29.30;36.64;97184.59;5057529;28;1876;-82
2021/07/12 03:35:48;;;;;;;;;;;;;;;29.31;36.92;97183.63;5029749;28;1192;-82
2021/07/12 03:38:14;;;;;;;;;;;;;;;29.31;36.94;97187.13;5039572;28;1177;-81
2021/07/12 03:40:40;;;;;;;;;;;;;;;29.33;36.74;97194.94;5025126;28;1666;-81
2021/07/12 03:43:05;;;;;;;;;;;;;;;29.35;36.68;97198.28;5039583;28;1196;-81
2021/07/12 03:45:31;;;;;;;;;;;;;;;29.29;36.95;97191.75;5029778;28;1612;-82
2021/07/12 03:47:56;;;;;;;;;;;;;;;29.33;36.68;97194.94;5008133;28;1775;-82
2021/07/12 03:50:22;;;;;;;;;;;;;;;29.32;36.83;97183.47;5040384;28;1326;-81
2021/07/12 03:52:48;;;;;;;;;;;;;;;29.26;36.79;97192.06;5027050;28;1906;-81
2021/07/12 03:55:14;;;;;;;;;;;;;;;29.26;37.01;97200.03;5025933;28;1630;-82
2021/07/12 03:57:39;;;;;;;;;;;;;;;29.29;36.99;97201.53;5038637;28;1385;-81
2021/07/12 04:00:05;;;;;;;;;;;;;;;29.28;36.90;97189.25;5026474;28;1292;-81
2021/07/12 04:02:30;;;;;;;;;;;;;;;29.31;36.98;97196.91;5023692;28;1576;-81
2021/07/12 04:04:56;;;;;;;;;;;;;;;29.24;37.00;97194.03;5039195;28;1342;-81
2021/07/12 04:07:21;;;;;;;;;;;;;;;29.33;36.72;97203.75;5037002;28;1547;-81
2021/07/12 04:09:46;;;;;;;;;;;;;;;29.22;36.76;97203.97;5037669;28;1593;-81
2021/07/12 04:12:11;;;;;;;;;;;;;;;29.24;37.27;97206.50;5033899;28;1971;-81
2021/07/12 04:14:37;;;;;;;;;;;;;;;29.17;36.98;97193.81;5038353;28;1293;-81
2021/07/12 04:17:02;;;;;;;;;;;;;;;29.23;37.13;97196.81;5038780;28;1346;-81
2021/07/12 04:19:27;;;;;;;;;;;;;;;29.22;37.27;97200.47;5038859;28;1393;-81
2021/07/12 04:21:52;;;;;;;;;;;;;;;29.29;36.92;97205.03;5023303;28;1559;-81
2021/07/12 04:24:18;;;;;;;;;;;;;;;29.23;37.02;97200.34;5035991;28;1566;-81
2021/07/12 04:26:43;;;;;;;;;;;;;;;29.19;37.23;97194.50;5025905;28;1389;-81
2021/07/12 04:29:08;;;;;;;;;;;;;;;29.26;36.84;97197.38;5039214;28;1250;-81
2021/07/12 04:31:33;;;;;;;;;;;;;;;29.31;36.88;97197.75;5026610;28;1409;-81
2021/07/12 04:33:59;;;;;;;;;;;;;;;29.31;36.75;97199.56;5039786;28;1934;-81
2021/07/12 04:36:24;;;;;;;;;;;;;;;29.14;37.19;97206.53;5041895;28;1543;-81
2021/07/12 04:38:49;;;;;;;;;;;;;;;29.20;37.03;97200.63;5040312;28;1688;-81
2021/07/12 04:41:15;;;;;;;;;;;;;;;29.26;37.01;97207.16;5042435;28;1298;-81
2021/07/12 04:43:40;;;;;;;;;;;;;;;29.28;36.82;97205.19;5029101;28;1263;-81
2021/07/12 04:46:05;;;;;;;;;;;;;;;29.27;36.83;97200.84;5037980;28;1549;-81
2021/07/12 04:48:30;;;;;;;;;;;;;;;29.22;37.20;97200.47;5042601;28;1303;-81
2021/07/12 04:50:56;;;;;;;;;;;;;;;29.32;37.04;97201.25;5042103;28;1073;-81
2021/07/12 04:53:21;;;;;;;;;;;;;;;29.34;36.60;97193.94;5043288;28;1906;-81
2021/07/12 04:55:46;;;;;;;;;;;;;;;29.29;36.68;97194.41;5037564;28;1601;-81
2021/07/12 04:58:11;;;;;;;;;;;;;;;29.20;37.15;97190.84;5032302;28;1345;-81
2021/07/12 05:00:37;;;;;;;;;;;;;;;29.34;36.41;97191.28;5040040;28;1909;-81
2021/07/12 05:03:04;;;;;;;;;;;;;;;29.33;36.52;97186.97;5040146;28;1687;-81
2021/07/12 05:05:30;;;;;;;;;;;;;;;29.29;36.67;97186.44;5030335;28;1746;-81
2021/07/12 05:07:55;;;;;;;;;;;;;;;29.25;36.77;97190.41;5037970;28;1586;-81
2021/07/12 05:10:20;;;;;;;;;;;;;;;29.30;36.76;97185.44;5040677;28;1656;-81
2021/07/12 05:12:45;;;;;;;;;;;;;;;29.27;36.83;97184.94;5040402;28;1914;-81
2021/07/12 05:15:11;;;;;;;;;;;;;;;29.31;36.71;97187.13;5030002;28;1240;-81
2021/07/12 05:17:36;;;;;;;;;;;;;;;29.28;36.75;97176.78;5031887;28;1360;-81
2021/07/12 05:20:02;;;;;;;;;;;;;;;29.20;36.74;97171.41;5026452;28;1810;-81
2021/07/12 05:22:27;;;;;;;;;;;;;;;29.18;36.90;97168.09;5029514;28;1482;-81
2021/07/12 05:24:53;;;;;;;;;;;;;;;29.25;36.61;97171.81;5038813;28;2262;-81
2021/07/12 05:27:19;;;;;;;;;;;;;;;29.23;36.78;97175.56;5039783;28;1408;-81
2021/07/12 05:29:44;;;;;;;;;;;;;;;29.24;36.66;97179.94;5031657;28;1252;-81
2021/07/12 05:32:09;;;;;;;;;;;;;;;29.19;36.86;97177.72;5040653;28;1902;-81
2021/07/12 05:34:34;;;;;;;;;;;;;;;29.24;36.81;97175.44;5030426;28;1706;-81
2021/07/12 05:37:00;;;;;;;;;;;;;;;29.17;37.00;97172.56;5041363;28;1597;-82
2021/07/12 05:39:25;;;;;;;;;;;;;;;29.19;36.72;97173.25;5042216;28;1924;-81
2021/07/12 05:41:50;;;;;;;;;;;;;;;29.24;36.70;97171.97;5031932;28;1227;-81
2021/07/12 05:44:15;;;;;;;;;;;;;;;29.24;36.82;97170.13;5040437;28;1452;-82
2021/07/12 05:46:40;;;;;;;;;;;;;;;29.27;36.68;97163.69;5029558;28;1253;-82
2021/07/12 05:49:06;;;;;;;;;;;;;;;29.26;36.77;97162.00;5038358;28;1557;-81
2021/07/12 05:51:31;;;;;;;;;;;;;;;29.24;36.92;97161.34;5041780;28;1366;-81
2021/07/12 05:53:56;;;;;;;;;;;;;;;29.25;36.89;97160.34;5037504;28;1955;-81
2021/07/12 05:56:21;;;;;;;;;;;;;;;29.24;36.87;97162.16;5040840;28;1326;-81
2021/07/12 05:58:47;;;;;;;;;;;;;;;29.24;36.91;97175.44;5042337;28;1349;-81
2021/07/12 06:01:16;;;;;;;;;;;;;;;29.24;36.63;97169.31;5040466;28;1144;-81
2021/07/12 06:03:41;;;;;;;;;;;;;;;29.25;36.85;97182.44;5038995;28;1649;-81
2021/07/12 06:06:06;;;;;;;;;;;;;;;29.25;36.93;97177.13;5038384;28;1529;-82
2021/07/12 06:08:31;;;;;;;;;;;;;;;29.18;36.87;97170.75;5041152;28;1234;-81
2021/07/12 06:10:56;;;;;;;;;;;;;;;29.27;36.57;97167.16;5038279;28;1585;-81
2021/07/12 06:13:22;;;;;;;;;;;;;;;29.22;36.89;97163.28;5041224;28;1966;-81
2021/07/12 06:15:47;;;;;;;;;;;;;;;29.17;36.94;97166.44;5039259;28;1397;-81
2021/07/12 06:18:13;;;;;;;;;;;;;;;29.31;36.72;97157.06;5038097;28;1652;-81
2021/07/12 06:20:38;;;;;;;;;;;;;;;29.28;36.66;97155.56;5024216;28;1722;-81
2021/07/12 06:23:03;;;;;;;;;;;;;;;29.24;36.88;97161.34;5042033;28;1137;-81
2021/07/12 06:25:28;;;;;;;;;;;;;;;29.26;36.70;97162.00;5037689;28;1589;-81
2021/07/12 06:27:53;;;;;;;;;;;;;;;29.26;36.82;97162.84;5041039;28;1408;-81
2021/07/12 06:30:20;;;;;;;;;;;;;;;29.28;36.80;97168.00;5041859;28;1165;-82
2021/07/12 06:32:45;;;;;;;;;;;;;;;29.26;36.71;97156.69;5026744;28;1914;-81
2021/07/12 06:35:11;;;;;;;;;;;;;;;29.32;36.75;97150.78;5026131;28;1395;-82
2021/07/12 06:37:36;;;;;;;;;;;;;;;29.26;36.97;97140.75;5040437;28;1274;-81
2021/07/12 06:40:02;;;;;;;;;;;;;;;29.30;36.51;97147.41;5036268;28;1547;-82
2021/07/12 06:42:27;;;;;;;;;;;;;;;29.26;36.53;97154.03;5027433;28;1485;-81
2021/07/12 06:44:57;;;;;;;;;;;;;;;29.26;36.56;97154.88;5029755;28;1057;-81
2021/07/12 06:47:22;;;;;;;;;;;;;;;29.28;36.64;97157.38;5008213;28;1575;-81
2021/07/12 06:49:47;;;;;;;;;;;;;;;29.30;36.87;97158.88;5028836;28;1228;-81
2021/07/12 06:52:13;;;;;;;;;;;;;;;29.31;36.76;97157.06;5027455;28;1914;-81
2021/07/12 06:54:38;;;;;;;;;;;;;;;29.26;36.77;97160.19;5040014;28;1700;-81
2021/07/12 06:57:03;;;;;;;;;;;;;;;29.31;36.73;97165.03;5039045;28;1328;-82
2021/07/12 06:59:28;;;;;;;;;;;;;;;29.24;36.62;97158.69;5027103;28;1424;-82
2021/07/12 07:01:54;;;;;;;;;;;;;;;29.26;36.80;97159.34;5027731;28;1295;-82
2021/07/12 07:04:19;;;;;;;;;;;;;;;29.25;36.79;97163.84;5038238;28;1720;-82
2021/07/12 07:06:44;;;;;;;;;;;;;;;29.29;36.69;97154.56;5035144;28;1514;-82
2021/07/12 07:09:09;;;;;;;;;;;;;;;29.18;37.11;97160.13;5038168;28;1589;-82
2021/07/12 07:11:34;;;;;;;;;;;;;;;29.22;36.71;97165.94;5027716;28;1472;-82
2021/07/12 07:14:00;;;;;;;;;;;;;;;29.28;36.82;97166.16;5029994;28;1961;-82
2021/07/12 07:16:25;;;;;;;;;;;;;;;29.27;36.83;97156.53;5037694;28;1601;-81
2021/07/12 07:18:51;;;;;;;;;;;;;;;29.34;36.72;97149.63;5039429;28;1318;-81
2021/07/12 07:21:16;;;;;;;;;;;;;;;29.29;36.70;97146.59;5039902;28;1291;-82
2021/07/12 07:23:41;;;;;;;;;;;;;;;29.31;36.61;97144.63;5036584;28;1667;-81
2021/07/12 07:26:07;;;;;;;;;;;;;;;29.20;37.10;97148.34;5025242;28;1457;-82
2021/07/12 07:28:32;;;;;;;;;;;;;;;29.26;37.07;97144.25;5037503;28;1214;-82
2021/07/12 07:30:57;;;;;;;;;;;;;;;29.23;36.92;97133.09;5028990;28;1343;-82
2021/07/12 07:33:25;;;;;;;;;;;;;;;29.21;36.96;97127.94;5038105;28;1907;-81
2021/07/12 07:35:51;;;;;;;;;;;;;;;29.30;36.80;97115.53;5046390;28;1117;-81
2021/07/12 07:38:16;;;;;;;;;;;;;;;29.20;37.08;97120.97;5045938;28;1455;-81
2021/07/12 07:40:41;;;;;;;;;;;;;;;29.25;36.72;97128.47;5044195;28;1612;-81
2021/07/12 07:43:06;;;;;;;;;;;;;;;29.11;37.08;97122.72;5026196;28;1591;-82
2021/07/12 07:45:34;;;;;;;;;;;;;;;29.23;36.77;97117.16;5043313;28;1231;-81
2021/07/12 07:47:59;;;;;;;;;;;;;;;29.21;37.02;97117.31;5039127;28;1307;-82
2021/07/12 07:50:25;;;;;;;;;;;;;;;29.26;36.88;97106.25;5028992;28;1591;-81
2021/07/12 07:52:50;;;;;;;;;;;;;;;29.19;37.08;97109.50;5007573;28;1910;-81
2021/07/12 07:55:15;;;;;;;;;;;;;;;29.20;37.09;97113.00;5037420;28;1641;-81
2021/07/12 07:57:41;;;;;;;;;;;;;;;29.24;37.12;97110.88;5042249;28;1554;-81
2021/07/12 08:00:07;;;;;;;;;;;;;;;29.23;37.05;97109.19;5045223;28;1282;-81
2021/07/12 08:02:32;;;;;;;;;;;;;;;29.26;36.93;97109.72;5028216;28;1729;-81
2021/07/12 08:04:57;;;;;;;;;;;;;;;29.17;37.32;97103.53;5029656;28;1236;-81
2021/07/12 08:07:23;;;;;;;;;;;;;;;29.20;37.23;97103.19;5025661;28;1636;-81
2021/07/12 08:09:48;;;;;;;;;;;;;;;29.10;37.39;97102.47;5048681;28;1624;-81
2021/07/12 08:12:13;;;;;;;;;;;;;;;29.12;37.26;97108.44;5034417;28;1890;-82
2021/07/12 08:14:38;;;;;;;;;;;;;;;29.20;37.04;97102.38;5033469;28;1456;-81
2021/07/12 08:17:04;;;;;;;;;;;;;;;29.27;37.18;97099.94;5043739;28;1605;-81
2021/07/12 08:19:29;;;;;;;;;;;;;;;29.23;37.22;97093.25;5048758;28;1373;-81
2021/07/12 08:21:54;;;;;;;;;;;;;;;29.26;36.92;97093.78;5029485;28;1517;-82
2021/07/12 08:24:19;;;;;;;;;;;;;;;29.24;37.19;97094.94;5048613;28;1546;-81
2021/07/12 08:26:44;;;;;;;;;;;;;;;29.25;37.23;97092.13;5018010;28;1267;-81
2021/07/12 08:29:10;;;;;;;;;;;;;;;29.26;37.08;97087.66;5043095;28;1593;-82
2021/07/12 08:31:35;;;;;;;;;;;;;;;29.34;36.90;97085.03;5038869;28;1498;-82
2021/07/12 08:34:00;;;;;;;;;;;;;;;29.27;37.19;97087.47;5043064;28;1934;-82
2021/07/12 08:36:25;;;;;;;;;;;;;;;29.26;37.22;97077.84;5034250;28;1367;-81
2021/07/12 08:38:51;;;;;;;;;;;;;;;29.07;37.41;97076.25;5027863;28;1534;-81
2021/07/12 08:41:16;;;;;;;;;;;;;;;29.44;36.66;97075.13;5039819;28;3502;-83
2021/07/12 08:43:41;;;;;;;;;;;;;;;29.58;36.31;97079.06;5040960;28;2200;-83
2021/07/12 08:46:06;;;;;;;;;;;;;;;28.85;38.32;97079.34;5042698;28;1906;-84
2021/07/12 08:48:32;;;;;;;;;;;;;;;29.81;36.46;97082.84;5027959;28;1992;-84
2021/07/12 08:50:57;;;;;;;;;;;;;;;28.75;38.38;97073.25;5007378;28;2219;-84
2021/07/12 08:53:22;;;;;;;;;;;;;;;28.36;39.03;97063.81;5044866;28;2216;-84
2021/07/12 08:55:47;;;;;;;;;;;;;;;28.61;38.88;97072.00;5042792;28;2412;-84
2021/07/12 08:58:21;;;;;;;;;;;;;;;28.88;38.43;97071.06;5048617;28;1871;-84
2021/07/12 09:00:47;;;;;;;;;;;;;;;29.08;37.90;97072.59;5019947;28;1961;-83
2021/07/12 09:03:28;;;;;;;;;;;;;;;29.07;37.72;97068.28;5042091;28;1937;-84
2021/07/12 09:05:57;;;;;;;;;;;;;;;29.36;37.09;97069.78;5018960;28;1877;-84
2021/07/12 09:08:41;;;;;;;;;;;;;;;29.31;37.25;97053.47;5044652;28;1926;-84
2021/07/12 09:11:11;;;;;;;;;;;;;;;29.23;37.28;97051.63;5039653;28;1964;-84
2021/07/12 09:13:47;;;;;;;;;;;;;;;28.95;37.97;97053.56;5022198;28;1971;-84
2021/07/12 09:16:28;;;;;;;;;;;;;;;29.08;37.79;97056.66;5027360;28;2019;-84
2021/07/12 09:19:06;;;;;;;;;;;;;;;29.16;37.56;97054.06;5043134;28;3759;-84
2021/07/12 09:21:35;;;;;;;;;;;;;;;29.17;37.55;97053.06;5041973;28;1945;-84
2021/07/12 09:24:19;;;;;;;;;;;;;;;30.33;36.06;97055.28;5015819;28;1916;-93
2021/07/12 09:26:45;;;;;;;;;;;;;;;30.43;35.14;97050.66;5031371;28;2234;-91
2021/07/12 09:29:15;;;;;;;;;;;;;;;31.16;33.85;97050.69;5017943;28;2016;-91
2021/07/12 09:31:40;;;;;;;;;;;;;;;31.27;33.58;97052.19;5000079;28;2157;-90
2021/07/12 09:34:05;;;;;;;;;;;;;;;31.38;33.42;97042.03;5021155;28;2115;-91
2021/07/12 09:36:30;;;;;;;;;;;;;;;31.30;33.49;97038.56;5017579;28;2030;-91
2021/07/12 09:38:56;;;;;;;;;;;;;;;31.16;33.86;97041.88;5014685;28;1935;-91
2021/07/12 09:41:28;;;;;;;;;;;;;;;30.01;35.87;97032.88;5014418;28;1923;-90
2021/07/12 09:44:02;;;;;;;;;;;;;;;29.71;36.21;97029.00;5022237;28;1944;-91
2021/07/12 09:46:30;;;;;;;;;;;;;;;29.63;36.59;97032.44;5018434;28;1984;-90
2021/07/12 09:49:11;;;;;;;;;;;;;;;29.70;36.47;97021.97;5022964;28;1885;-90
2021/07/12 09:51:38;;;;;;;;;;;;;;;30.79;34.94;97025.41;5001228;28;2224;-91
2021/07/12 09:54:15;;;;;;;;;;;;;;;31.05;34.04;97025.25;5022265;28;2164;-91
2021/07/12 09:56:40;;;;;;;;;;;;;;;31.16;33.87;97020.56;5035020;28;3783;-90
2021/07/12 09:59:06;;;;;;;;;;;;;;;31.45;33.46;97030.69;5020678;28;2348;-90
2021/07/12 10:01:31;;;;;;;;;;;;;;;31.67;33.17;97014.75;5015088;28;2073;-91
2021/07/12 10:03:56;;;;;;;;;;;;;;;31.24;33.66;97007.25;5011719;28;2457;-91
2021/07/12 10:06:21;;;;;;;;;;;;;;;31.45;33.26;97010.19;4994532;28;1934;-91
2021/07/12 10:08:46;;;;;;;;;;;;;;;31.58;33.03;97009.63;5015078;28;2334;-90
2021/07/12 10:11:12;;;;;;;;;;;;;;;31.27;33.40;97012.22;5015319;28;1925;-90
2021/07/12 10:13:37;;;;;;;;;;;;;;;31.03;33.73;97015.75;5023602;28;1927;-90
2021/07/12 10:16:02;;;;;;;;;;;;;;;31.18;33.72;97003.41;5005898;28;1913;-90
2021/07/12 10:18:29;;;;;;;;;;;;;;;31.21;33.62;97000.41;5001057;28;1933;-90
2021/07/12 10:20:54;;;;;;;;;;;;;;;31.58;32.98;96997.13;4999778;28;1873;-90
2021/07/12 10:23:20;;;;;;;;;;;;;;;31.65;32.86;96995.44;5016129;28;1988;-90
2021/07/12 10:25:46;;;;;;;;;;;;;;;31.75;32.73;96983.75;5033703;28;2221;-90
2021/07/12 10:28:12;;;;;;;;;;;;;;;31.14;33.55;96983.44;5020662;28;1904;-90
2021/07/12 10:30:40;;;;;;;;;;;;;;;31.32;33.26;96992.06;5038280;28;2328;-90
2021/07/12 10:33:09;;;;;;;;;;;;;;;31.40;32.93;96984.06;5032397;28;3792;-90
2021/07/12 10:35:35;;;;;;;;;;;;;;;31.39;33.18;96976.25;5018156;28;2014;-90
2021/07/12 10:38:00;;;;;;;;;;;;;;;31.33;33.50;96967.09;5021207;28;1943;-90
2021/07/12 10:40:26;;;;;;;;;;;;;;;31.21;33.43;96983.59;5014481;28;2206;-90
2021/07/12 10:42:53;;;;;;;;;;;;;;;31.29;33.31;96987.09;5014394;28;2027;-90
2021/07/12 10:45:27;;;;;;;;;;;;;;;31.26;33.42;96981.25;5016261;28;2023;-90
2021/07/12 10:47:59;;;;;;;;;;;;;;;31.07;33.83;96985.94;5033738;28;1919;-90
2021/07/12 10:50:38;;;;;;;;;;;;;;;31.29;33.36;96981.78;5031875;28;1899;-90
2021/07/12 10:53:03;;;;;;;;;;;;;;;31.22;33.55;96978.13;5035314;28;2206;-91
2021/07/12 10:55:35;;;;;;;;;;;;;;;31.30;33.40;96963.94;5015418;28;1919;-91
2021/07/12 10:58:19;;;;;;;;;;;;;;;31.78;32.73;96972.78;5017165;28;1876;-90
2021/07/12 11:00:44;;;;;;;;;;;;;;;31.30;33.38;96959.44;5037518;28;2179;-90
2021/07/12 11:03:28;;;;;;;;;;;;;;;31.25;33.44;96966.28;5019142;28;1904;-91
2021/07/12 11:05:53;;;;;;;;;;;;;;;31.12;33.71;96956.13;5033117;28;1964;-90
2021/07/12 11:08:37;;;;;;;;;;;;;;;31.37;33.27;96960.44;5003177;28;2239;-91
2021/07/12 11:11:04;;;;;;;;;;;;;;;31.41;33.17;96950.25;5032009;28;3853;-90
2021/07/12 11:13:48;;;;;;;;;;;;;;;31.27;33.31;96954.44;5002771;28;1968;-90
2021/07/12 11:16:15;;;;;;;;;;;;;;;31.26;33.42;96950.13;5036376;28;1840;-90
2021/07/12 11:18:40;;;;;;;;;;;;;;;31.33;33.26;96951.09;5014396;28;2147;-90
2021/07/12 11:21:06;;;;;;;;;;;;;;;31.10;33.85;96955.47;5015212;28;2218;-90
2021/07/12 11:23:34;;;;;;;;;;;;;;;31.07;33.77;96958.50;5021512;28;1915;-90
2021/07/12 11:25:59;;;;;;;;;;;;;;;31.25;33.42;96951.13;5029326;28;1872;-90
2021/07/12 11:28:25;;;;;;;;;;;;;;;31.10;33.82;96958.13;5037684;28;2169;-90
2021/07/12 11:30:51;;;;;;;;;;;;;;;31.21;33.70;96956.97;5001469;28;2036;-90
2021/07/12 11:33:27;;;;;;;;;;;;;;;31.12;33.56;96950.78;5020678;28;1979;-90
2021/07/12 11:35:55;;;;;;;;;;;;;;;31.30;33.24;96939.97;5037609;28;1986;-90
2021/07/12 11:38:21;;;;;;;;;;;;;;;30.99;33.77;96942.53;5045985;28;2158;-91
2021/07/12 11:40:49;;;;;;;;;;;;;;;31.24;33.29;96933.50;5016712;28;2151;-90
2021/07/12 11:43:24;;;;;;;;;;;;;;;31.17;33.63;96937.81;5027731;28;1938;-91
2021/07/12 11:46:00;;;;;;;;;;;;;;;31.05;33.82;96937.34;5002891;28;1909;-90
2021/07/12 11:48:25;;;;;;;;;;;;;;;31.19;33.37;96935.78;5014409;28;3859;-90
2021/07/12 11:50:50;;;;;;;;;;;;;;;31.29;33.30;96925.00;5019149;28;1961;-91
2021/07/12 11:53:15;;;;;;;;;;;;;;;31.34;33.31;96928.78;5017759;28;1987;-91
2021/07/12 11:55:41;;;;;;;;;;;;;;;31.24;33.39;96924.66;5011824;28;1896;-90
2021/07/12 11:58:06;;;;;;;;;;;;;;;31.03;33.91;96922.53;5025286;28;1925;-90
2021/07/12 12:00:32;;;;;;;;;;;;;;;31.15;33.64;96923.00;5020400;28;1916;-91
2021/07/12 12:02:57;;;;;;;;;;;;;;;31.06;33.79;96923.03;5023577;28;1940;-89
2021/07/12 12:05:23;;;;;;;;;;;;;;;31.22;33.39;96914.19;5016559;28;2174;-92
2021/07/12 12:07:48;;;;;;;;;;;;;;;31.19;33.73;96925.13;5018685;28;1977;-91
2021/07/12 12:10:14;;;;;;;;;;;;;;;31.16;33.63;96922.00;5003338;28;2059;-91
2021/07/12 12:12:39;;;;;;;;;;;;;;;31.24;33.55;96922.84;5036377;28;2236;-91
2021/07/12 12:15:23;;;;;;;;;;;;;;;31.25;33.47;96921.00;5040669;28;2272;-90
2021/07/12 12:18:06;;;;;;;;;;;;;;;31.22;33.61;96911.53;5020825;28;2327;-90
2021/07/12 12:20:35;;;;;;;;;;;;;;;31.06;33.78;96901.72;5018953;28;1880;-92
2021/07/12 12:23:04;;;;;;;;;;;;;;;31.33;33.35;96891.66;5036718;28;1982;-89
2021/07/12 12:25:34;;;;;;;;;;;;;;;31.48;32.96;96889.09;5014348;28;4006;-89
2021/07/12 12:27:59;;;;;;;;;;;;;;;31.16;33.63;96880.22;5037240;28;1945;-89
2021/07/12 12:30:24;;;;;;;;;;;;;;;31.09;33.87;96885.41;5018332;28;1884;-89
2021/07/12 12:32:53;;;;;;;;;;;;;;;31.11;33.59;96879.88;5017748;28;1963;-88
2021/07/12 12:35:18;;;;;;;;;;;;;;;31.27;33.39;96871.03;5006941;28;1887;-88
2021/07/12 12:37:44;;;;;;;;;;;;;;;32.92;30.54;96879.31;5003510;28;1965;-89
2021/07/12 12:40:22;;;;;;;;;;;;;;;33.24;30.20;96875.41;5037310;28;2204;-88
2021/07/12 12:42:48;;;;;;;;;;;;;;;33.25;30.19;96877.06;5040202;28;2064;-89
2021/07/12 12:45:22;;;;;;;;;;;;;;;32.77;30.87;96875.78;5021323;28;1975;-87
2021/07/12 12:47:47;;;;;;;;;;;;;;;32.79;30.79;96887.13;5018223;28;2131;-89
2021/07/12 12:50:13;;;;;;;;;;;;;;;32.96;30.67;96869.94;5019971;28;2036;-87
2021/07/12 12:52:38;;;;;;;;;;;;;;;32.85;30.90;96865.03;5031952;28;1961;-88
2021/07/12 12:55:09;;;;;;;;;;;;;;;32.94;30.95;96885.31;5021050;28;2211;-88
2021/07/12 12:57:36;;;;;;;;;;;;;;;32.95;30.80;96870.94;5014848;28;1892;-87